Oakwood, Iowa
Current Conditions -  °F | °C
As of 12:55 PM on Friday 28 Nov 2014 (Local Time) from KCCY Reporting Station
Clear Clear  
Wind Chill: 13°   Ceiling: Unl
Heat Index: 25°   Visibility: 10mi
Dew Point: 19°   Wind: 13mph
Humidity: 80%   Direction: 130°SE
Pressure: 29.87"   Gusts: NA
Location:  42.9618°N, 92.9184°W
Report Text: KCCY 281855Z AUTO 13011KT 10SM CLR M04/M07 A2987 RMK AO2
Loading
Personal Weather Stations






























Interactive Weather Map New forecast layout! Learn more

10-Day Weather Forecast

Advertisements
Track Severe Weather on mobile